Time;durP1;ratioP1;P1;durP2;ratioP2;P2;SDS_P1;SDS_P2;PMS_P1;PMS_P2;Temp;Humidity;BMP_temperature;BMP_pressure;BME280_temperature;BME280_humidity;BME280_pressure;Samples;Min_cycle;Max_cycle;Signal;HPM_P1;HPM_P2
2023/03/05 00:01:17;;;;;;;75.85;16.88;;;5.30;73.90;;;;;;5037999;28;20155;-86
2023/03/05 00:07:04;;;;;;;72.00;14.20;;;5.30;69.00;;;;;;5037300;28;20177;-86
2023/03/05 00:09:59;;;;;;;73.03;13.40;;;5.30;72.40;;;;;;5037563;28;20179;-85
2023/03/05 00:12:54;;;;;;;72.50;10.43;;;5.30;73.00;;;;;;5052436;28;20243;-86
2023/03/05 00:15:23;;;;;;;70.47;9.13;;;5.40;68.80;;;;;;5037756;28;20173;-85
2023/03/05 00:18:08;;;;;;;71.75;10.48;;;5.40;63.90;;;;;;5038110;28;20173;-87
2023/03/05 00:20:49;;;;;;;;;;;;;;;;;;;;;
2023/03/05 00:23:25;;;;;;;76.05;9.90;;;5.30;67.50;;;;;;5038418;28;20267;-86
2023/03/05 00:26:14;;;;;;;76.28;9.55;;;5.30;68.80;;;;;;5038190;28;20640;-86
2023/03/05 00:29:04;;;;;;;75.38;10.57;;;5.30;64.70;;;;;;5037793;28;20169;-85
2023/03/05 00:31:59;;;;;;;72.63;11.18;;;5.30;64.00;;;;;;5037464;28;20161;-86
2023/03/05 00:34:31;;;;;;;66.93;9.75;;;5.30;66.80;;;;;;5038211;28;20211;-86
2023/03/05 00:37:23;;;;;;;74.45;8.57;;;5.30;68.90;;;;;;5037136;28;20176;-86
2023/03/05 00:40:12;;;;;;;75.28;9.27;;;5.30;68.00;;;;;;5045075;28;20605;-86
2023/03/05 00:45:52;;;;;;;70.30;7.82;;;5.30;65.90;;;;;;5038853;28;20189;-85
2023/03/05 00:48:24;;;;;;;71.35;7.15;;;5.30;63.20;;;;;;5037115;28;20171;-84
2023/03/05 00:51:11;;;;;;;;;;;;;;;;;;;;;
2023/03/05 00:54:19;;;;;;;65.55;5.97;;;5.40;62.10;;;;;;5038332;28;20276;-85
2023/03/05 00:57:10;;;;;;;67.88;6.60;;;5.40;58.50;;;;;;5039690;28;20535;-85
2023/03/05 00:59:56;;;;;;;70.35;7.07;;;5.40;58.00;;;;;;5041597;28;20189;-85
2023/03/05 01:05:42;;;;;;;66.65;5.82;;;5.40;58.70;;;;;;5037359;28;20264;-86
2023/03/05 01:08:18;;;;;;;66.57;6.40;;;5.30;59.40;;;;;;5042486;28;20192;-86
2023/03/05 01:11:23;;;;;;;72.80;6.78;;;5.30;60.20;;;;;;5042437;28;20203;-86
2023/03/05 01:14:00;;;;;;;74.30;7.18;;;5.30;59.20;;;;;;4980274;28;20183;-86
2023/03/05 01:16:43;;;;;;;71.13;7.47;;;5.30;60.20;;;;;;4981108;28;20724;-85
2023/03/05 01:19:44;;;;;;;67.72;7.35;;;5.20;62.70;;;;;;5031004;28;20212;-85
2023/03/05 01:22:20;;;;;;;72.20;7.93;;;5.20;66.10;;;;;;4980456;28;20190;-86
2023/03/05 01:24:57;;;;;;;72.60;11.70;;;5.10;68.60;;;;;;5041481;28;20180;-86
2023/03/05 01:27:41;;;;;;;68.57;10.23;;;5.00;77.30;;;;;;5042219;28;20146;-85
2023/03/05 01:30:24;;;;;;;;;;;;;;;;;;;;;
2023/03/05 01:33:02;;;;;;;82.15;9.77;;;5.10;73.10;;;;;;5040246;28;20311;-85
2023/03/05 01:35:37;;;;;;;73.53;9.15;;;5.20;74.80;;;;;;5039266;28;20177;-86
2023/03/05 01:38:11;;;;;;;73.82;10.32;;;5.20;68.30;;;;;;5040104;28;20154;-86
2023/03/05 01:41:04;;;;;;;70.25;10.07;;;5.10;71.40;;;;;;5039290;28;20734;-85
2023/03/05 01:43:53;;;;;;;74.28;11.40;;;5.10;73.00;;;;;;5056906;28;20185;-86
2023/03/05 01:46:36;;;;;;;74.57;11.80;;;5.10;75.40;;;;;;5056686;28;20212;-85
2023/03/05 01:49:17;;;;;;;77.18;9.38;;;5.00;74.80;;;;;;5056920;28;20173;-86
2023/03/05 01:52:16;;;;;;;;;;;;;;;;;;;;;
2023/03/05 01:55:10;;;;;;;71.18;9.30;;;5.10;76.10;;;;;;5042131;28;20304;-86
2023/03/05 01:57:48;;;;;;;72.88;7.85;;;5.10;73.80;;;;;;5039578;28;20174;-86
2023/03/05 02:00:35;;;;;;;69.10;8.48;;;5.10;71.70;;;;;;5041508;28;20149;-86
2023/03/05 02:03:16;;;;;;;70.97;9.05;;;5.10;76.90;;;;;;5040318;28;20590;-86
2023/03/05 02:08:46;;;;;;;66.00;6.40;;;5.10;74.20;;;;;;5032193;28;20174;-86
2023/03/05 02:11:42;;;;;;;82.60;7.75;;;5.10;73.60;;;;;;5041055;28;20156;-86
2023/03/05 02:14:13;;;;;;;78.18;6.85;;;5.20;72.10;;;;;;5040531;28;20177;-86
2023/03/05 02:16:38;;;;;;;71.00;6.45;;;5.20;64.30;;;;;;5040865;28;20627;-86
2023/03/05 02:19:14;;;;;;;66.23;5.67;;;5.10;68.40;;;;;;5041553;28;20175;-86
2023/03/05 02:21:57;;;;;;;67.35;5.90;;;5.10;68.70;;;;;;5040932;28;20422;-86
2023/03/05 02:25:33;;;;;;;66.55;6.55;;;5.20;67.60;;;;;;5040004;28;20181;-86
2023/03/05 02:28:19;;;;;;;70.97;6.78;;;5.20;64.00;;;;;;5038475;28;20583;-86
2023/03/05 02:31:14;;;;;;;66.82;6.85;;;5.20;58.30;;;;;;5040818;28;20609;-86
2023/03/05 02:33:56;;;;;;;67.78;6.10;;;5.10;59.60;;;;;;5040861;28;20166;-86
2023/03/05 02:36:54;;;;;;;72.03;7.05;;;5.10;59.50;;;;;;5039010;28;20173;-85
2023/03/05 02:39:35;;;;;;;68.57;6.30;;;5.00;58.30;;;;;;5038682;28;20172;-86
2023/03/05 02:42:47;;;;;;;70.22;6.65;;;5.00;59.80;;;;;;5039266;28;20552;-85
2023/03/05 02:45:30;;;;;;;74.15;6.53;;;5.00;57.80;;;;;;5011150;28;20213;-86
2023/03/05 02:47:59;;;;;;;71.63;6.32;;;5.10;58.80;;;;;;5040675;28;20156;-86
2023/03/05 02:50:33;;;;;;;68.22;7.60;;;5.00;55.50;;;;;;5040840;28;20532;-86
2023/03/05 02:53:22;;;;;;;71.55;6.38;;;5.00;56.30;;;;;;5038316;28;20189;-86
2023/03/05 02:55:59;;;;;;;68.90;5.82;;;5.00;54.70;;;;;;5040361;28;20153;-86
2023/03/05 02:58:35;;;;;;;71.40;5.65;;;5.00;52.40;;;;;;5039030;28;20153;-86
2023/03/05 03:01:09;;;;;;;66.70;6.45;;;4.90;54.50;;;;;;5040632;28;20165;-86
2023/03/05 03:03:49;;;;;;;70.72;7.30;;;4.90;54.80;;;;;;5039752;28;20200;-86
2023/03/05 03:06:22;;;;;;;67.22;7.03;;;4.90;57.90;;;;;;5041273;28;20200;-85
2023/03/05 03:08:51;;;;;;;70.28;8.45;;;4.90;55.60;;;;;;5042667;28;20165;-84
2023/03/05 03:11:35;;;;;;;68.25;7.90;;;4.80;52.80;;;;;;5039801;28;20249;-85
2023/03/05 03:14:04;;;;;;;68.25;7.13;;;4.70;58.50;;;;;;5038799;28;20168;-84
2023/03/05 03:16:30;;;;;;;68.43;6.78;;;4.80;56.40;;;;;;5039447;28;20180;-85
2023/03/05 03:18:58;;;;;;;68.40;6.60;;;4.80;58.70;;;;;;5039351;28;20162;-84
2023/03/05 03:21:37;;;;;;;65.75;7.05;;;4.90;59.10;;;;;;5038781;28;20490;-85
2023/03/05 03:24:17;;;;;;;78.18;7.72;;;4.90;58.10;;;;;;5039836;28;20152;-85
2023/03/05 03:27:12;;;;;;;73.95;8.52;;;4.80;63.60;;;;;;5039672;28;20142;-85
2023/03/05 03:30:03;;;;;;;70.22;8.88;;;4.80;64.20;;;;;;5047792;28;20245;-85
2023/03/05 03:32:41;;;;;;;68.53;7.00;;;4.80;67.80;;;;;;5037959;28;20200;-86
2023/03/05 03:35:11;;;;;;;74.70;10.07;;;4.80;68.50;;;;;;5039177;28;20215;-86
2023/03/05 03:37:37;;;;;;;69.68;9.38;;;4.80;66.30;;;;;;5038637;28;20177;-86
2023/03/05 03:40:10;;;;;;;68.65;8.57;;;4.80;66.40;;;;;;5039198;28;20600;-86
2023/03/05 03:42:39;;;;;;;67.55;6.63;;;4.90;68.00;;;;;;5038414;28;20188;-86
2023/03/05 03:45:05;;;;;;;68.20;6.13;;;4.90;65.40;;;;;;5038337;28;20189;-86
2023/03/05 03:47:39;;;;;;;68.10;7.25;;;4.90;63.20;;;;;;5038144;28;20164;-86
2023/03/05 03:50:10;;;;;;;66.80;6.85;;;4.90;59.10;;;;;;5039236;28;20241;-86
2023/03/05 03:52:51;;;;;;;70.97;6.05;;;5.00;60.10;;;;;;5041762;23;20685;-86
2023/03/05 03:55:20;;;;;;;67.70;6.90;;;4.90;62.40;;;;;;5017892;28;20168;-86
2023/03/05 04:01:17;;;;;;;70.10;7.05;;;4.90;62.80;;;;;;5018059;28;20178;-86
2023/03/05 04:03:43;;;;;;;71.13;6.15;;;4.90;69.20;;;;;;4999373;28;20154;-86
2023/03/05 04:06:18;;;;;;;69.50;7.27;;;4.90;66.10;;;;;;4998960;28;20197;-86
2023/03/05 04:09:07;;;;;;;70.75;6.30;;;4.90;62.60;;;;;;4999648;28;20378;-86
2023/03/05 04:11:36;;;;;;;69.75;6.68;;;4.90;65.60;;;;;;4998028;28;20174;-86
2023/03/05 04:14:13;;;;;;;74.95;6.00;;;4.90;66.50;;;;;;4998996;28;20163;-86
2023/03/05 04:17:04;;;;;;;65.80;5.72;;;4.90;64.50;;;;;;4998955;28;20190;-86
2023/03/05 04:19:49;;;;;;;70.20;6.38;;;4.90;58.60;;;;;;4998937;28;20257;-86
2023/03/05 04:22:17;;;;;;;67.55;6.22;;;4.90;58.40;;;;;;4999039;28;20182;-86
2023/03/05 04:24:45;;;;;;;66.55;6.55;;;4.90;58.20;;;;;;4998100;28;20279;-86
2023/03/05 04:27:16;;;;;;;67.95;5.53;;;4.90;59.10;;;;;;4999662;28;20563;-86
2023/03/05 04:29:50;;;;;;;68.25;5.65;;;4.90;61.20;;;;;;4998656;28;20170;-87
2023/03/05 04:32:24;;;;;;;70.05;5.88;;;4.80;56.70;;;;;;4999252;28;20550;-86
2023/03/05 04:34:56;;;;;;;67.65;4.80;;;4.80;57.10;;;;;;4998329;28;20166;-86
2023/03/05 04:37:30;;;;;;;65.25;5.30;;;4.80;55.70;;;;;;4998920;28;20545;-86
2023/03/05 04:40:27;;;;;;;64.85;4.50;;;4.80;52.20;;;;;;4998522;28;20697;-86
2023/03/05 04:42:55;;;;;;;70.50;4.78;;;4.80;53.10;;;;;;4998430;28;20208;-86
2023/03/05 04:45:36;;;;;;;67.68;4.95;;;4.90;49.40;;;;;;4997716;28;20196;-86
2023/03/05 04:48:11;;;;;;;64.80;5.70;;;4.70;48.90;;;;;;4999268;28;20151;-86
2023/03/05 04:50:45;;;;;;;66.57;4.82;;;4.70;56.20;;;;;;4999686;28;20150;-86
2023/03/05 04:53:17;;;;;;;72.30;6.53;;;4.80;55.10;;;;;;4999021;28;20220;-86
2023/03/05 04:55:48;;;;;;;66.65;5.45;;;4.80;57.50;;;;;;4998243;28;20159;-86
2023/03/05 04:58:22;;;;;;;65.28;4.68;;;4.80;57.30;;;;;;4999871;28;20530;-86
2023/03/05 05:00:53;;;;;;;69.38;5.95;;;4.80;53.90;;;;;;4999229;28;20160;-87
2023/03/05 05:03:25;;;;;;;67.22;5.63;;;4.80;50.80;;;;;;4999979;28;20195;-85
2023/03/05 05:06:00;;;;;;;75.07;4.60;;;4.70;51.80;;;;;;4999275;28;20186;-86
2023/03/05 05:08:32;;;;;;;66.93;4.43;;;4.80;50.40;;;;;;5001284;28;20201;-86
2023/03/05 05:11:18;;;;;;;68.07;5.13;;;4.80;49.60;;;;;;5000567;28;20147;-86
2023/03/05 05:13:47;;;;;;;68.65;5.43;;;4.80;52.80;;;;;;4999485;28;20163;-86
2023/03/05 05:16:21;;;;;;;66.82;4.38;;;4.80;51.70;;;;;;5001950;28;20170;-86
2023/03/05 05:18:54;;;;;;;71.15;4.97;;;4.80;52.10;;;;;;4999120;28;20151;-87
2023/03/05 05:21:21;;;;;;;80.32;5.50;;;4.80;51.30;;;;;;4999240;28;20200;-86
2023/03/05 05:23:55;;;;;;;68.63;5.32;;;4.80;51.40;;;;;;4998379;28;20177;-86
2023/03/05 05:26:30;;;;;;;67.32;4.22;;;4.80;49.80;;;;;;4998576;28;20197;-86
2023/03/05 05:29:11;;;;;;;67.45;4.78;;;4.80;55.40;;;;;;5000847;28;20582;-86
2023/03/05 05:31:42;;;;;;;78.38;6.07;;;4.80;53.50;;;;;;5000394;28;20191;-86
2023/03/05 05:34:08;;;;;;;73.45;5.07;;;4.90;53.60;;;;;;5110940;23;20636;-83
2023/03/05 05:36:34;;;;;;;66.47;4.90;;;4.90;52.70;;;;;;5068254;28;20195;-83
2023/03/05 05:38:59;;;;;;;68.20;5.77;;;4.80;56.40;;;;;;5068648;28;20493;-83
2023/03/05 05:41:25;;;;;;;74.93;5.70;;;4.80;55.80;;;;;;5068200;28;20174;-83
2023/03/05 05:43:51;;;;;;;68.67;5.27;;;4.90;53.70;;;;;;5070778;28;20228;-84
2023/03/05 05:46:19;;;;;;;67.32;5.13;;;4.80;53.40;;;;;;5071707;28;20188;-83
2023/03/05 05:48:46;;;;;;;69.35;7.03;;;4.80;55.50;;;;;;5071422;28;20176;-83
2023/03/05 05:51:15;;;;;;;69.07;6.10;;;4.80;55.10;;;;;;5071470;28;20187;-83
2023/03/05 05:53:41;;;;;;;70.95;5.75;;;4.80;54.90;;;;;;5070263;28;20665;-83
2023/03/05 05:56:09;;;;;;;72.15;5.63;;;4.80;54.60;;;;;;5071799;28;20223;-85
2023/03/05 05:58:36;;;;;;;70.93;6.13;;;4.80;54.60;;;;;;5071860;28;20195;-84
2023/03/05 06:01:10;;;;;;;74.53;6.75;;;4.90;54.90;;;;;;5071360;28;20161;-83
2023/03/05 06:03:36;;;;;;;66.72;6.07;;;4.90;56.30;;;;;;5071703;28;20184;-83
2023/03/05 06:06:02;;;;;;;69.33;5.60;;;4.90;54.80;;;;;;5071155;28;20600;-83
2023/03/05 06:08:27;;;;;;;67.73;5.20;;;4.90;55.70;;;;;;5071984;28;20415;-83
2023/03/05 06:13:19;;;;;;;70.47;7.22;;;4.80;58.60;;;;;;5160933;22;20232;-83
2023/03/05 06:15:55;;;;;;;70.90;6.23;;;4.80;59.20;;;;;;5071455;28;20203;-83
2023/03/05 06:18:21;;;;;;;68.00;7.75;;;4.80;63.60;;;;;;5070718;28;20160;-83
2023/03/05 06:20:53;;;;;;;66.40;5.60;;;4.80;63.50;;;;;;5069847;28;20191;-83
2023/03/05 06:23:19;;;;;;;71.18;6.90;;;4.80;66.00;;;;;;5071135;28;20184;-83
2023/03/05 06:25:45;;;;;;;73.37;6.50;;;4.90;59.80;;;;;;5071011;28;20260;-83
2023/03/05 06:28:11;;;;;;;68.37;5.53;;;4.90;58.10;;;;;;5070703;28;20414;-83
2023/03/05 06:30:37;;;;;;;72.97;6.78;;;4.90;59.90;;;;;;5069636;28;20235;-83
2023/03/05 06:33:03;;;;;;;73.30;7.90;;;4.90;63.50;;;;;;5070226;28;20187;-83
2023/03/05 06:35:29;;;;;;;69.82;9.02;;;4.80;65.80;;;;;;5067722;28;20226;-82
2023/03/05 06:37:55;;;;;;;76.03;7.40;;;4.70;71.20;;;;;;5069055;28;20164;-83
2023/03/05 06:40:20;;;;;;;78.40;7.37;;;4.80;73.40;;;;;;5068433;28;20183;-82
2023/03/05 06:42:46;;;;;;;76.43;8.17;;;4.80;72.70;;;;;;5068637;28;20489;-82
2023/03/05 06:45:12;;;;;;;77.00;7.03;;;4.90;69.00;;;;;;5068592;28;20193;-82
2023/03/05 06:47:38;;;;;;;70.47;6.43;;;4.80;69.00;;;;;;5067971;28;20223;-82
2023/03/05 06:50:04;;;;;;;70.70;7.43;;;4.90;72.10;;;;;;5067574;28;20165;-83
2023/03/05 06:52:29;;;;;;;72.07;7.85;;;4.90;67.90;;;;;;5068941;28;20199;-82
2023/03/05 06:54:55;;;;;;;68.63;6.90;;;4.90;67.90;;;;;;5071024;28;20164;-82
2023/03/05 06:57:22;;;;;;;66.73;6.13;;;4.90;70.10;;;;;;5068397;28;20766;-83
2023/03/05 06:59:48;;;;;;;72.35;8.70;;;4.90;70.90;;;;;;5068455;28;20164;-82
2023/03/05 07:02:14;;;;;;;68.55;7.30;;;4.90;72.70;;;;;;5067903;28;20188;-83
2023/03/05 07:04:40;;;;;;;73.75;9.25;;;4.90;76.00;;;;;;5068950;28;20192;-83
2023/03/05 07:07:06;;;;;;;68.70;7.00;;;5.00;75.10;;;;;;5068763;28;20224;-82
2023/03/05 07:09:32;;;;;;;75.18;7.70;;;5.10;67.80;;;;;;5068257;28;20172;-83
2023/03/05 07:11:57;;;;;;;68.50;7.10;;;5.10;67.10;;;;;;5067609;28;20196;-82
2023/03/05 07:14:23;;;;;;;69.57;7.53;;;5.20;68.90;;;;;;5068058;28;20172;-83
2023/03/05 07:16:49;;;;;;;69.33;7.33;;;5.20;65.00;;;;;;5068032;28;20422;-83
2023/03/05 07:19:15;;;;;;;67.07;6.88;;;5.20;66.00;;;;;;5067698;28;20229;-83
2023/03/05 07:21:41;;;;;;;79.03;8.30;;;5.20;70.50;;;;;;5067760;28;20192;-82
2023/03/05 07:24:07;;;;;;;70.80;7.20;;;5.20;71.60;;;;;;5066613;28;20165;-82
2023/03/05 07:26:33;;;;;;;66.82;6.95;;;5.20;71.60;;;;;;5066454;28;20171;-82
2023/03/05 07:29:00;;;;;;;77.40;7.95;;;5.20;76.20;;;;;;5066509;28;20175;-82
2023/03/05 07:31:29;;;;;;;70.93;6.43;;;5.30;73.30;;;;;;5067364;28;20224;-83
2023/03/05 07:33:56;;;;;;;68.82;5.85;;;5.30;74.60;;;;;;5067647;28;20156;-82
2023/03/05 07:36:22;;;;;;;77.63;6.45;;;5.40;70.70;;;;;;5067520;28;20169;-83
2023/03/05 07:38:47;;;;;;;69.33;5.90;;;5.40;64.50;;;;;;5067953;28;20161;-82
2023/03/05 07:41:19;;;;;;;69.60;4.93;;;5.50;65.00;;;;;;5067493;28;20427;-82
2023/03/05 07:43:47;;;;;;;76.95;5.20;;;5.50;61.30;;;;;;5067487;28;20383;-82
2023/03/05 07:46:15;;;;;;;72.55;6.93;;;5.40;58.80;;;;;;5067742;28;20198;-82
2023/03/05 07:48:41;;;;;;;70.60;5.82;;;5.40;60.00;;;;;;5067664;28;20187;-83
2023/03/05 07:51:14;;;;;;;74.60;6.13;;;5.40;60.30;;;;;;5067745;28;20255;-83
2023/03/05 07:53:41;;;;;;;71.32;6.00;;;5.40;55.70;;;;;;5067042;28;20155;-82
2023/03/05 07:56:08;;;;;;;71.55;5.30;;;5.40;51.90;;;;;;5067607;28;20165;-82
2023/03/05 07:58:34;;;;;;;73.68;6.43;;;5.40;55.10;;;;;;5067087;28;20164;-82
2023/03/05 08:01:00;;;;;;;72.50;5.55;;;5.40;53.60;;;;;;5067101;28;20243;-82
2023/03/05 08:03:26;;;;;;;70.97;5.53;;;5.40;54.30;;;;;;5066899;28;20196;-82
2023/03/05 08:05:51;;;;;;;72.80;5.97;;;5.40;51.90;;;;;;5067701;28;20188;-82
2023/03/05 08:08:17;;;;;;;67.20;6.30;;;5.50;46.70;;;;;;5067461;28;20176;-82
2023/03/05 08:10:43;;;;;;;70.47;6.30;;;5.50;46.20;;;;;;5067288;28;20160;-82
2023/03/05 08:13:09;;;;;;;74.10;5.60;;;5.50;42.60;;;;;;5067566;28;20567;-82
2023/03/05 08:15:36;;;;;;;68.83;6.30;;;5.60;39.00;;;;;;5067463;28;20464;-82
2023/03/05 08:18:03;;;;;;;71.55;5.70;;;5.70;35.30;;;;;;5065870;28;20802;-82
2023/03/05 08:20:28;;;;;;;68.93;5.72;;;5.60;35.90;;;;;;5067234;28;20247;-82
2023/03/05 08:22:54;;;;;;;71.33;6.00;;;5.60;37.50;;;;;;5065296;28;20203;-83
2023/03/05 08:25:20;;;;;;;69.17;6.30;;;5.60;35.70;;;;;;5066049;28;20199;-82
2023/03/05 08:27:47;;;;;;;67.78;5.45;;;5.60;34.30;;;;;;5066260;28;20172;-83
2023/03/05 08:30:17;;;;;;;71.63;6.63;;;5.50;36.20;;;;;;5065295;28;20168;-82
2023/03/05 08:32:43;;;;;;;70.90;5.72;;;5.60;35.70;;;;;;5067197;28;20268;-82
2023/03/05 08:35:09;;;;;;;68.07;5.73;;;5.60;38.30;;;;;;5066459;28;20164;-82
2023/03/05 08:37:35;;;;;;;72.40;6.63;;;5.70;37.30;;;;;;5065128;28;20172;-82
2023/03/05 08:40:01;;;;;;;74.20;6.50;;;5.70;37.60;;;;;;5066689;28;20536;-82
2023/03/05 08:42:26;;;;;;;68.60;6.13;;;5.70;36.60;;;;;;5066648;28;20203;-82
2023/03/05 08:44:52;;;;;;;74.37;6.70;;;5.80;36.90;;;;;;5067001;28;20214;-82
2023/03/05 08:47:19;;;;;;;75.93;5.83;;;5.90;34.50;;;;;;5066725;28;20184;-82
2023/03/05 08:49:45;;;;;;;69.75;6.15;;;5.90;33.30;;;;;;5065431;28;20238;-82
2023/03/05 08:52:11;;;;;;;69.63;6.05;;;5.90;31.80;;;;;;5067164;28;20183;-83
2023/03/05 08:54:37;;;;;;;69.78;7.85;;;5.80;33.90;;;;;;5066349;28;20192;-82
2023/03/05 08:57:04;;;;;;;77.60;6.85;;;5.90;32.90;;;;;;5066340;28;20173;-83
2023/03/05 08:59:29;;;;;;;73.30;6.53;;;5.90;31.70;;;;;;5066997;28;20220;-83
2023/03/05 09:02:00;;;;;;;70.03;7.10;;;5.90;32.90;;;;;;5066796;28;20180;-82
2023/03/05 09:04:25;;;;;;;72.13;6.57;;;5.90;32.20;;;;;;5065701;28;20483;-83
2023/03/05 09:06:51;;;;;;;74.73;6.40;;;5.90;32.90;;;;;;5067208;28;20164;-82
2023/03/05 09:09:20;;;;;;;71.50;6.43;;;5.90;33.70;;;;;;5066158;28;20414;-82
2023/03/05 09:11:46;;;;;;;76.07;7.20;;;5.80;35.60;;;;;;5066178;28;20571;-82
2023/03/05 09:14:11;;;;;;;83.07;7.80;;;5.90;35.50;;;;;;5067290;28;20171;-82
2023/03/05 09:16:39;;;;;;;73.67;7.70;;;5.80;34.30;;;;;;5067362;28;20196;-83
2023/03/05 09:19:09;;;;;;;76.05;7.78;;;5.90;33.00;;;;;;5069446;28;20157;-82
2023/03/05 09:21:35;;;;;;;79.18;7.53;;;5.90;37.30;;;;;;5071133;28;20211;-82
2023/03/05 09:24:02;;;;;;;68.78;6.70;;;6.10;35.70;;;;;;5070938;28;20188;-83
2023/03/05 09:26:28;;;;;;;72.93;9.25;;;6.20;33.50;;;;;;5069901;28;20203;-83
2023/03/05 09:28:53;;;;;;;76.90;7.27;;;6.20;32.20;;;;;;5069265;28;20165;-82
2023/03/05 09:31:19;;;;;;;73.50;6.80;;;6.30;40.20;;;;;;5070748;28;20220;-83
2023/03/05 09:33:47;;;;;;;71.80;8.20;;;6.40;28.90;;;;;;5069832;28;20402;-82
2023/03/05 09:36:25;;;;;;;73.18;7.43;;;6.40;28.00;;;;;;5069675;28;20441;-83
2023/03/05 09:38:51;;;;;;;72.13;7.05;;;6.60;28.30;;;;;;5068527;28;20250;-83
2023/03/05 09:41:36;;;;;;;79.18;9.02;;;6.60;24.10;;;;;;5069414;28;20172;-82
2023/03/05 09:44:11;;;;;;;77.57;8.98;;;6.80;20.50;;;;;;5070318;28;20183;-82
2023/03/05 09:47:14;;;;;;;75.65;9.43;;;6.90;19.00;;;;;;5069203;28;20172;-83
2023/03/05 09:49:58;;;;;;;75.68;8.88;;;7.10;19.10;;;;;;5056222;28;20179;-82
2023/03/05 09:52:30;;;;;;;69.93;6.47;;;7.20;15.20;;;;;;5070841;28;20184;-84
2023/03/05 09:54:57;;;;;;;71.32;6.40;;;7.20;7.70;;;;;;5069010;28;20180;-83
2023/03/05 09:57:38;;;;;;;69.45;7.05;;;7.10;7.90;;;;;;5069852;28;20235;-83
2023/03/05 10:00:15;;;;;;;76.35;6.95;;;7.00;9.40;;;;;;5070309;28;20152;-83
2023/03/05 10:02:50;;;;;;;76.95;6.00;;;6.90;10.70;;;;;;5070332;28;20198;-83
2023/03/05 10:05:50;;;;;;;75.75;6.30;;;6.90;13.10;;;;;;5070501;28;20188;-83
2023/03/05 10:08:22;;;;;;;77.25;6.20;;;6.80;11.50;;;;;;5068822;28;20207;-83
2023/03/05 10:10:51;;;;;;;74.32;6.65;;;6.70;19.10;;;;;;5070607;28;20228;-84
2023/03/05 10:13:36;;;;;;;71.90;7.47;;;6.70;24.70;;;;;;5068359;28;20760;-84
2023/03/05 10:16:52;;;;;;;69.20;7.50;;;6.50;22.20;;;;;;5069986;28;20176;-85
2023/03/05 10:19:39;;;;;;;67.75;7.03;;;6.40;25.60;;;;;;5008382;28;20170;-84
2023/03/05 10:22:22;;;;;;;70.65;7.47;;;6.30;27.00;;;;;;5009021;28;20258;-84
2023/03/05 10:25:08;;;;;;;68.40;6.57;;;6.30;24.70;;;;;;5058419;28;20207;-84
2023/03/05 10:28:00;;;;;;;76.13;7.50;;;6.20;26.90;;;;;;5070278;28;20149;-83
2023/03/05 10:30:53;;;;;;;72.60;7.25;;;6.20;28.20;;;;;;5063028;28;20152;-83
2023/03/05 10:33:50;;;;;;;70.70;7.60;;;6.20;29.30;;;;;;5070653;28;20183;-85
2023/03/05 10:36:31;;;;;;;70.18;8.02;;;6.10;27.30;;;;;;5069112;28;20190;-83
2023/03/05 10:39:24;;;;;;;73.50;9.43;;;6.10;26.70;;;;;;5069915;28;20227;-83
2023/03/05 10:42:38;;;;;;;71.13;9.57;;;6.10;30.00;;;;;;5068726;28;20192;-83
2023/03/05 10:45:25;;;;;;;71.78;8.45;;;6.20;33.40;;;;;;5036342;28;20243;-83
2023/03/05 10:48:13;;;;;;;74.40;9.88;;;6.30;30.10;;;;;;5068169;28;20160;-83
2023/03/05 10:50:52;;;;;;;67.68;7.50;;;6.40;27.60;;;;;;5069377;28;20203;-83
2023/03/05 10:53:29;;;;;;;69.97;9.90;;;6.40;27.30;;;;;;5069492;28;20189;-83
2023/03/05 10:55:55;;;;;;;69.38;8.45;;;6.40;27.10;;;;;;5069230;28;20140;-84
2023/03/05 10:58:22;;;;;;;72.03;9.07;;;6.40;27.70;;;;;;5069327;28;20240;-83
2023/03/05 11:01:09;;;;;;;80.97;10.68;;;6.30;25.20;;;;;;5068238;28;20454;-83
2023/03/05 11:04:05;;;;;;;74.15;9.57;;;6.30;29.30;;;;;;5069083;28;20234;-84
2023/03/05 11:06:31;;;;;;;75.95;9.20;;;6.20;27.70;;;;;;5056881;28;20222;-83
2023/03/05 11:09:31;;;;;;;76.07;9.60;;;6.10;29.10;;;;;;5069365;28;20532;-84
2023/03/05 11:12:07;;;;;;;72.90;8.60;;;6.10;32.60;;;;;;5069504;28;20204;-83
2023/03/05 11:14:34;;;;;;;70.97;9.90;;;6.10;34.70;;;;;;5069083;28;20296;-84
2023/03/05 11:17:02;;;;;;;71.70;11.13;;;6.00;38.20;;;;;;5069555;28;20172;-84
2023/03/05 11:19:34;;;;;;;73.78;10.55;;;6.00;42.70;;;;;;5069414;28;20192;-84
2023/03/05 11:22:09;;;;;;;71.07;9.90;;;6.10;45.20;;;;;;5069266;28;20220;-83
2023/03/05 11:24:36;;;;;;;75.65;10.55;;;6.20;44.90;;;;;;5068837;28;20194;-84
2023/03/05 11:27:20;;;;;;;72.65;10.68;;;6.20;42.80;;;;;;5068630;28;20188;-83
2023/03/05 11:29:49;;;;;;;72.50;9.35;;;6.30;45.90;;;;;;5071526;28;20152;-83
2023/03/05 11:32:24;;;;;;;72.50;10.00;;;6.30;45.50;;;;;;5069825;28;20180;-84
2023/03/05 11:34:50;;;;;;;74.70;10.02;;;6.30;40.60;;;;;;5128962;23;20311;-83
2023/03/05 11:37:28;;;;;;;75.13;9.43;;;6.30;40.10;;;;;;5065948;28;20165;-83
2023/03/05 11:40:07;;;;;;;76.20;9.00;;;6.30;38.90;;;;;;5064942;28;20200;-83
2023/03/05 11:42:33;;;;;;;71.88;9.95;;;6.30;34.40;;;;;;5065381;28;20279;-83
2023/03/05 11:44:59;;;;;;;72.28;8.35;;;6.10;34.40;;;;;;5066082;28;20697;-83
2023/03/05 11:47:38;;;;;;;70.68;8.27;;;6.00;34.60;;;;;;5066370;28;20528;-84
2023/03/05 11:50:23;;;;;;;71.22;9.15;;;6.00;32.60;;;;;;5069118;28;20144;-83
2023/03/05 11:53:17;;;;;;;71.65;9.18;;;6.00;37.00;;;;;;5068510;28;20189;-83
2023/03/05 11:55:44;;;;;;;69.93;9.70;;;6.00;44.70;;;;;;5065916;28;20180;-84
2023/03/05 11:58:25;;;;;;;77.05;12.05;;;5.90;53.00;;;;;;5070274;28;20168;-84
2023/03/05 12:00:51;;;;;;;76.95;12.00;;;5.90;60.30;;;;;;5070072;28;20160;-84
2023/03/05 12:03:20;;;;;;;75.88;13.70;;;5.90;66.40;;;;;;5069303;28;20560;-84
2023/03/05 12:05:55;;;;;;;76.80;16.00;;;5.90;67.30;;;;;;5068435;28;20257;-84
2023/03/05 12:08:43;;;;;;;80.45;17.40;;;6.00;70.70;;;;;;5066748;28;20164;-84
2023/03/05 12:11:38;;;;;;;73.80;14.63;;;6.00;72.20;;;;;;5067510;28;20175;-83
2023/03/05 12:14:40;;;;;;;75.28;16.55;;;6.00;70.60;;;;;;5067026;28;20183;-83
2023/03/05 12:17:17;;;;;;;74.32;16.17;;;6.00;69.90;;;;;;5059526;28;20172;-83
2023/03/05 12:19:59;;;;;;;74.53;16.38;;;6.10;65.70;;;;;;5068044;28;20149;-83
2023/03/05 12:22:33;;;;;;;75.25;16.58;;;6.10;72.40;;;;;;5066946;28;20271;-83
2023/03/05 12:25:27;;;;;;;76.38;18.95;;;6.10;66.80;;;;;;5065664;28;20184;-82
2023/03/05 12:27:54;;;;;;;78.10;24.75;;;6.20;75.80;;;;;;5066973;28;20227;-83
2023/03/05 12:30:40;;;;;;;74.78;18.80;;;6.20;66.80;;;;;;5066206;28;20161;-83
2023/03/05 12:33:29;;;;;;;75.28;16.75;;;6.20;57.90;;;;;;5068103;28;20192;-83
2023/03/05 12:36:20;;;;;;;72.72;12.55;;;6.30;62.00;;;;;;5066420;28;20266;-83
2023/03/05 12:38:53;;;;;;;73.40;12.20;;;6.30;59.90;;;;;;5067321;28;20179;-83
2023/03/05 12:41:25;;;;;;;69.63;10.88;;;6.30;60.00;;;;;;5068215;28;20180;-83
2023/03/05 12:44:05;;;;;;;76.90;13.38;;;6.20;56.50;;;;;;5067686;28;20157;-83
2023/03/05 12:46:44;;;;;;;73.10;12.85;;;6.20;59.70;;;;;;5065394;28;20192;-83
2023/03/05 12:49:20;;;;;;;77.47;13.15;;;6.20;56.80;;;;;;5066691;28;20167;-83
2023/03/05 12:51:47;;;;;;;72.13;11.52;;;6.20;59.20;;;;;;5065382;28;20183;-83
2023/03/05 12:54:39;;;;;;;75.45;13.15;;;6.20;59.90;;;;;;5070202;28;20233;-83
2023/03/05 12:57:18;;;;;;;73.47;11.77;;;6.30;62.40;;;;;;5070368;28;20179;-83
2023/03/05 13:00:13;;;;;;;77.38;13.30;;;6.40;58.60;;;;;;5069496;28;20171;-83
2023/03/05 13:02:41;;;;;;;72.80;12.27;;;6.40;59.00;;;;;;5069889;28;20195;-83
2023/03/05 13:05:19;;;;;;;74.55;11.90;;;6.40;56.40;;;;;;5071660;28;20191;-83
2023/03/05 13:07:45;;;;;;;73.10;11.07;;;6.40;52.80;;;;;;5071691;28;20164;-83
2023/03/05 13:10:28;;;;;;;75.23;12.10;;;6.50;48.70;;;;;;5069692;28;20168;-83
2023/03/05 13:12:57;;;;;;;74.05;11.15;;;6.40;51.70;;;;;;5069852;28;20188;-83
2023/03/05 13:15:24;;;;;;;74.70;12.15;;;6.40;53.70;;;;;;5070139;28;20196;-83
2023/03/05 13:18:02;;;;;;;77.60;11.63;;;6.40;53.30;;;;;;5069302;28;20177;-83
2023/03/05 13:20:33;;;;;;;76.85;14.20;;;6.40;53.30;;;;;;5069506;28;20168;-83
2023/03/05 13:23:19;;;;;;;76.05;12.15;;;6.40;53.30;;;;;;5071135;28;20185;-83
2023/03/05 13:25:55;;;;;;;74.10;11.43;;;6.50;52.40;;;;;;5069500;28;20184;-83
2023/03/05 13:28:21;;;;;;;74.97;11.40;;;6.50;51.30;;;;;;5071501;28;20160;-83
2023/03/05 13:30:57;;;;;;;72.70;10.07;;;6.70;49.50;;;;;;5071060;28;20165;-83
2023/03/05 13:33:29;;;;;;;74.07;10.70;;;6.60;50.40;;;;;;5070124;28;20196;-83
2023/03/05 13:35:55;;;;;;;77.20;11.15;;;6.60;53.40;;;;;;5068896;28;20187;-83
2023/03/05 13:38:33;;;;;;;76.20;11.77;;;6.60;47.20;;;;;;5071072;28;20534;-84
2023/03/05 13:41:23;;;;;;;75.15;10.65;;;6.60;51.60;;;;;;5069289;28;20174;-83
2023/03/05 13:44:01;;;;;;;75.50;10.48;;;6.60;48.60;;;;;;5069618;28;20165;-83
2023/03/05 13:46:37;;;;;;;72.50;9.93;;;6.70;46.30;;;;;;5070678;28;20219;-83
2023/03/05 13:49:24;;;;;;;71.22;9.82;;;6.70;46.50;;;;;;5069675;28;20163;-83
2023/03/05 13:51:54;;;;;;;71.65;10.00;;;6.60;42.10;;;;;;5070143;28;20184;-83